Time;durP1;ratioP1;P1;durP2;ratioP2;P2;SDS_P1;SDS_P2;PMS_P1;PMS_P2;Temp;Humidity;BMP_temperature;BMP_pressure;BME280_temperature;BME280_humidity;BME280_pressure;Samples;Min_cycle;Max_cycle;Signal;HPM_P1;HPM_P2
2022/10/17 00:00:04;;;;;;;32.43;19.07;;;9.30;99.90;;;;;;4380575;28;659620;-65
2022/10/17 00:02:52;;;;;;;38.83;17.13;;;9.30;99.90;;;;;;4358014;28;660496;-65
2022/10/17 00:05:40;;;;;;;32.37;18.00;;;9.20;99.90;;;;;;4379798;28;658730;-65
2022/10/17 00:08:27;;;;;;;44.27;18.30;;;9.30;99.90;;;;;;4357479;28;660603;-65
2022/10/17 00:11:17;;;;;;;31.77;17.83;;;9.30;99.90;;;;;;4380291;28;658427;-65
2022/10/17 00:14:04;;;;;;;43.60;19.67;;;9.30;99.90;;;;;;4357762;28;658539;-65
2022/10/17 00:16:52;;;;;;;42.83;19.60;;;9.20;99.90;;;;;;4361510;28;660070;-65
2022/10/17 00:19:39;;;;;;;38.07;19.17;;;9.20;99.90;;;;;;4380262;28;658878;-64
2022/10/17 00:22:26;;;;;;;35.13;18.92;;;9.20;99.90;;;;;;4357160;28;658629;-65
2022/10/17 00:25:13;;;;;;;37.50;19.23;;;9.20;99.90;;;;;;4363324;28;659802;-65
2022/10/17 00:28:02;;;;;;;36.20;19.65;;;9.20;99.90;;;;;;4344235;28;658521;-67
2022/10/17 00:30:55;;;;;;;35.77;19.37;;;9.20;99.90;;;;;;4362905;28;658919;-65
2022/10/17 00:33:43;;;;;;;45.43;20.60;;;9.20;99.90;;;;;;4317716;28;659140;-65
2022/10/17 00:36:30;;;;;;;37.37;19.80;;;9.20;99.90;;;;;;4355710;28;658637;-67
2022/10/17 00:39:17;;;;;;;35.80;19.00;;;9.20;99.90;;;;;;4367279;28;659715;-65
2022/10/17 00:42:04;;;;;;;34.73;18.30;;;9.10;99.90;;;;;;4362948;28;659057;-65
2022/10/17 00:45:15;;;;;;;36.37;18.23;;;9.20;99.90;;;;;;4344415;28;660220;-65
2022/10/17 00:48:05;;;;;;;38.90;18.30;;;9.20;99.90;;;;;;4340195;28;658846;-65
2022/10/17 00:50:52;;;;;;;32.67;18.27;;;9.20;99.90;;;;;;4340239;28;659977;-65
2022/10/17 00:53:39;;;;;;;36.63;18.87;;;9.20;99.90;;;;;;4366709;28;658061;-65
2022/10/17 00:56:26;;;;;;;35.95;17.90;;;9.20;99.90;;;;;;4344141;28;659125;-65
2022/10/17 00:59:14;;;;;;;31.40;17.10;;;9.20;99.90;;;;;;4362817;28;659902;-65
2022/10/17 01:02:03;;;;;;;29.00;16.27;;;9.20;99.90;;;;;;4343980;28;659084;-65
2022/10/17 01:04:52;;;;;;;34.17;16.47;;;9.20;99.90;;;;;;4344029;28;659450;-65
2022/10/17 01:07:39;;;;;;;36.27;17.07;;;9.10;99.90;;;;;;4361220;28;659218;-65
2022/10/17 01:10:29;;;;;;;37.90;19.03;;;9.10;99.90;;;;;;4341205;28;658355;-65
2022/10/17 01:13:21;;;;;;;31.70;17.73;;;9.00;99.90;;;;;;4343732;28;659364;-65
2022/10/17 01:16:09;;;;;;;26.73;16.13;;;9.10;99.90;;;;;;4343325;28;659033;-65
2022/10/17 01:19:02;;;;;;;30.00;16.77;;;9.00;99.90;;;;;;4343702;28;658904;-65
2022/10/17 01:21:50;;;;;;;33.60;16.00;;;9.10;99.90;;;;;;4339729;28;658419;-65
2022/10/17 01:24:47;;;;;;;27.57;15.07;;;9.10;99.90;;;;;;4357719;28;659149;-65
2022/10/17 01:27:56;;;;;;;24.83;14.23;;;9.10;99.90;;;;;;4356337;28;658302;-65
2022/10/17 01:31:03;;;;;;;25.80;13.40;;;9.00;99.90;;;;;;4356490;28;658836;-64
2022/10/17 01:33:56;;;;;;;25.83;14.20;;;9.00;99.90;;;;;;4337925;28;658613;-66
2022/10/17 01:36:47;;;;;;;23.92;14.00;;;9.00;99.90;;;;;;4356134;28;659771;-65
2022/10/17 01:39:39;;;;;;;26.50;13.80;;;8.90;99.90;;;;;;4356083;28;659099;-65
2022/10/17 01:42:28;;;;;;;21.53;12.97;;;9.00;99.90;;;;;;4333708;28;658714;-65
2022/10/17 01:45:18;;;;;;;27.43;13.03;;;9.00;99.90;;;;;;4368972;28;658677;-66
2022/10/17 01:48:09;;;;;;;32.43;14.63;;;9.00;99.90;;;;;;4365299;28;658373;-66
2022/10/17 01:50:58;;;;;;;25.93;14.10;;;9.00;99.90;;;;;;4360426;28;659145;-65
2022/10/17 01:53:49;;;;;;;23.10;13.53;;;9.00;99.90;;;;;;4359957;28;658982;-66
2022/10/17 01:56:36;;;;;;;24.00;12.27;;;9.00;99.90;;;;;;4357289;28;659080;-65
2022/10/17 01:59:25;;;;;;;31.83;12.67;;;9.00;99.90;;;;;;4378711;28;659889;-65
2022/10/17 02:02:12;;;;;;;27.17;13.70;;;9.00;99.90;;;;;;4355787;28;660097;-65
2022/10/17 02:05:00;;;;;;;21.37;12.57;;;8.90;99.90;;;;;;4378519;28;658501;-65
2022/10/17 02:07:47;;;;;;;23.73;12.97;;;9.00;99.90;;;;;;4355938;28;658984;-65
2022/10/17 02:10:44;;;;;;;26.43;13.53;;;9.00;99.90;;;;;;4375668;28;658625;-66
2022/10/17 02:13:38;;;;;;;27.50;13.68;;;9.00;99.90;;;;;;4352369;28;658857;-65
2022/10/17 02:16:29;;;;;;;25.53;13.73;;;8.90;99.90;;;;;;4334157;28;659442;-65
2022/10/17 02:19:36;;;;;;;23.33;12.97;;;9.00;99.90;;;;;;4359798;28;658380;-65
2022/10/17 02:22:30;;;;;;;26.40;12.90;;;8.90;99.90;;;;;;4355511;28;659341;-65
2022/10/17 02:25:21;;;;;;;29.17;13.20;;;8.90;99.90;;;;;;4316391;28;658631;-64
2022/10/17 02:28:14;;;;;;;20.10;12.53;;;8.80;99.90;;;;;;4338778;28;659994;-64
2022/10/17 02:31:03;;;;;;;24.47;13.67;;;8.80;99.90;;;;;;4316472;28;659635;-65
2022/10/17 02:33:52;;;;;;;27.10;13.97;;;8.80;99.90;;;;;;4342550;28;658637;-65
2022/10/17 02:36:42;;;;;;;22.03;12.93;;;8.80;99.90;;;;;;4358090;28;658569;-65
2022/10/17 02:39:31;;;;;;;27.95;13.27;;;8.80;99.90;;;;;;4360652;28;658838;-64
2022/10/17 02:42:18;;;;;;;23.73;12.77;;;8.80;99.90;;;;;;4338539;28;659233;-65
2022/10/17 02:45:06;;;;;;;25.25;12.77;;;8.80;99.90;;;;;;4347375;28;658415;-66
2022/10/17 02:47:55;;;;;;;23.10;12.47;;;8.80;99.90;;;;;;4360926;28;659010;-65
2022/10/17 02:50:48;;;;;;;25.53;12.87;;;8.80;99.90;;;;;;4338744;28;659867;-65
2022/10/17 02:53:37;;;;;;;23.63;12.47;;;8.70;99.90;;;;;;4322856;28;659338;-66
2022/10/17 02:56:26;;;;;;;23.27;12.70;;;8.70;99.90;;;;;;4356667;28;658465;-66
2022/10/17 02:59:14;;;;;;;23.10;12.50;;;8.70;99.90;;;;;;4364878;28;659149;-65
2022/10/17 03:02:03;;;;;;;26.40;12.80;;;8.80;99.90;;;;;;4342378;28;658532;-65
2022/10/17 03:04:50;;;;;;;19.40;12.07;;;8.70;99.90;;;;;;4350103;28;658485;-65
2022/10/17 03:07:37;;;;;;;22.53;12.67;;;8.70;99.90;;;;;;4364615;28;660754;-65
2022/10/17 03:10:24;;;;;;;24.10;12.40;;;8.70;99.90;;;;;;4361152;28;658520;-65
2022/10/17 03:13:13;;;;;;;24.27;12.67;;;8.70;99.90;;;;;;4342323;28;659379;-65
2022/10/17 03:16:00;;;;;;;23.87;12.67;;;8.80;99.90;;;;;;4341993;28;659021;-65
2022/10/17 03:18:47;;;;;;;21.87;13.00;;;8.70;99.90;;;;;;4360977;28;659851;-65
2022/10/17 03:21:36;;;;;;;22.73;13.73;;;8.80;99.90;;;;;;4360939;28;658600;-65
2022/10/17 03:24:23;;;;;;;26.10;13.97;;;8.80;99.90;;;;;;4350598;28;659742;-65
2022/10/17 03:27:11;;;;;;;21.63;13.20;;;8.80;99.90;;;;;;4358882;28;658521;-65
2022/10/17 03:29:59;;;;;;;23.43;13.40;;;8.70;99.90;;;;;;4381594;28;658599;-65
2022/10/17 03:32:46;;;;;;;27.00;14.27;;;8.70;99.90;;;;;;4357131;28;658547;-65
2022/10/17 03:35:33;;;;;;;25.47;13.23;;;8.70;99.90;;;;;;4377451;28;658809;-65
2022/10/17 03:38:21;;;;;;;25.57;14.00;;;8.80;99.90;;;;;;4359164;28;658810;-65
2022/10/17 03:41:08;;;;;;;25.23;12.80;;;8.70;99.90;;;;;;4377717;28;659800;-65
2022/10/17 03:43:55;;;;;;;28.93;13.50;;;8.70;99.90;;;;;;4367027;28;658652;-67
2022/10/17 03:46:44;;;;;;;22.77;13.50;;;8.70;99.90;;;;;;4377640;28;660126;-65
2022/10/17 03:49:31;;;;;;;22.37;13.27;;;8.70;99.90;;;;;;4356692;28;659358;-65
2022/10/17 03:52:18;;;;;;;23.93;12.30;;;8.60;99.90;;;;;;4380413;28;659369;-65
2022/10/17 03:55:06;;;;;;;27.43;13.43;;;8.60;99.90;;;;;;4362264;28;658610;-66
2022/10/17 03:57:53;;;;;;;25.20;13.17;;;8.60;99.90;;;;;;4383466;28;659485;-65
2022/10/17 04:00:40;;;;;;;28.80;13.17;;;8.60;99.90;;;;;;4362381;28;658473;-66
2022/10/17 04:03:29;;;;;;;21.23;12.43;;;8.60;99.90;;;;;;4384816;28;659770;-65
2022/10/17 04:06:16;;;;;;;22.48;12.95;;;8.60;99.90;;;;;;4357357;28;658850;-64
2022/10/17 04:09:03;;;;;;;22.85;13.18;;;8.60;99.90;;;;;;4380555;28;660037;-65
2022/10/17 04:11:51;;;;;;;25.40;13.37;;;8.60;99.90;;;;;;4361801;28;659211;-65
2022/10/17 04:14:38;;;;;;;23.17;12.97;;;8.60;99.90;;;;;;4382945;28;659135;-64
2022/10/17 04:17:25;;;;;;;23.40;13.38;;;8.50;99.90;;;;;;4361236;28;658460;-66
2022/10/17 04:20:14;;;;;;;26.10;13.27;;;8.50;99.90;;;;;;4380229;28;660258;-65
2022/10/17 04:23:01;;;;;;;22.77;13.37;;;8.50;99.90;;;;;;4357881;28;658500;-65
2022/10/17 04:25:49;;;;;;;23.60;13.40;;;8.50;99.90;;;;;;4363488;28;659388;-65
2022/10/17 04:28:36;;;;;;;22.70;13.17;;;8.50;99.90;;;;;;4344722;28;658509;-65
2022/10/17 04:31:23;;;;;;;28.43;14.03;;;8.50;99.90;;;;;;4365762;28;659170;-65
2022/10/17 04:34:12;;;;;;;19.27;12.27;;;8.50;99.90;;;;;;4347251;28;658827;-67
2022/10/17 04:37:01;;;;;;;24.73;14.23;;;8.50;99.90;;;;;;4359117;28;658633;-67
2022/10/17 04:39:49;;;;;;;25.90;15.20;;;8.50;99.90;;;;;;4362989;28;658716;-65
2022/10/17 04:42:36;;;;;;;24.13;14.67;;;8.50;99.90;;;;;;4344132;28;658738;-65
2022/10/17 04:45:23;;;;;;;26.70;13.73;;;8.40;99.90;;;;;;4362971;28;659423;-65
2022/10/17 04:48:11;;;;;;;28.03;14.97;;;8.50;99.90;;;;;;4344223;28;659409;-66
2022/10/17 04:50:59;;;;;;;28.40;15.00;;;8.50;99.90;;;;;;4366808;28;659036;-65
2022/10/17 04:53:48;;;;;;;30.57;16.20;;;8.50;99.90;;;;;;4344197;28;658357;-65
2022/10/17 04:56:35;;;;;;;29.23;15.87;;;8.50;99.90;;;;;;4348883;28;658347;-66
2022/10/17 04:59:22;;;;;;;21.95;13.05;;;8.50;99.90;;;;;;4366598;28;659676;-65
2022/10/17 05:02:09;;;;;;;30.77;14.90;;;8.50;99.90;;;;;;4361893;28;659127;-65
2022/10/17 05:04:57;;;;;;;26.40;14.07;;;8.50;99.90;;;;;;4344221;28;658856;-65
2022/10/17 05:07:44;;;;;;;27.57;14.10;;;8.50;99.90;;;;;;4362781;28;658828;-65
2022/10/17 05:10:35;;;;;;;24.13;12.43;;;8.50;99.90;;;;;;4343187;28;658810;-65
2022/10/17 05:13:23;;;;;;;23.20;13.13;;;8.50;99.90;;;;;;4339939;28;658883;-65
2022/10/17 05:16:10;;;;;;;22.07;13.83;;;8.50;99.90;;;;;;4354980;28;658435;-66
2022/10/17 05:18:58;;;;;;;26.10;14.53;;;8.50;99.90;;;;;;4362454;28;659849;-65
2022/10/17 05:21:45;;;;;;;25.93;14.30;;;8.60;99.90;;;;;;4345320;28;658693;-66
2022/10/17 05:24:32;;;;;;;26.27;13.73;;;8.60;99.90;;;;;;4379392;28;659313;-65
2022/10/17 05:27:21;;;;;;;27.77;14.87;;;8.60;99.90;;;;;;4378821;28;658426;-65
2022/10/17 05:30:09;;;;;;;26.23;14.23;;;8.70;99.90;;;;;;4356713;28;659698;-65
2022/10/17 05:32:56;;;;;;;26.47;14.23;;;8.80;99.90;;;;;;4360442;28;658460;-65
2022/10/17 05:35:43;;;;;;;24.65;14.15;;;8.80;99.90;;;;;;4378656;28;659342;-65
2022/10/17 05:38:30;;;;;;;28.33;15.50;;;8.90;99.90;;;;;;4360407;28;658283;-65
2022/10/17 05:41:18;;;;;;;28.53;16.23;;;8.90;99.90;;;;;;4378879;28;660477;-65
2022/10/17 05:44:07;;;;;;;25.67;15.07;;;9.00;99.90;;;;;;4370422;28;658877;-67
2022/10/17 05:46:54;;;;;;;35.07;15.97;;;9.10;99.90;;;;;;4378890;28;659130;-65
2022/10/17 05:49:41;;;;;;;33.57;16.67;;;9.20;99.90;;;;;;4360195;28;658861;-65
2022/10/17 05:52:28;;;;;;;27.27;16.23;;;9.20;99.90;;;;;;4379017;28;659400;-65
2022/10/17 05:55:15;;;;;;;30.17;16.60;;;9.30;99.90;;;;;;4359718;28;658642;-65
2022/10/17 05:58:03;;;;;;;32.37;16.27;;;9.40;99.90;;;;;;4378864;28;659642;-65
2022/10/17 06:00:52;;;;;;;31.10;16.50;;;9.50;99.90;;;;;;4367932;28;658378;-67
2022/10/17 06:03:39;;;;;;;30.47;16.27;;;9.60;99.90;;;;;;4378488;28;658939;-65
2022/10/17 06:06:26;;;;;;;30.98;16.27;;;9.80;99.90;;;;;;4359849;28;658724;-65
2022/10/17 06:09:13;;;;;;;31.97;17.07;;;9.90;99.90;;;;;;4378827;28;659622;-65
2022/10/17 06:12:00;;;;;;;31.30;16.17;;;10.10;99.90;;;;;;4359652;28;659122;-66
2022/10/17 06:14:48;;;;;;;31.13;16.27;;;10.20;99.90;;;;;;4376200;28;660656;-65
2022/10/17 06:17:37;;;;;;;34.57;17.33;;;10.40;99.90;;;;;;4370992;28;659677;-66
2022/10/17 06:20:24;;;;;;;29.90;15.23;;;10.60;99.90;;;;;;4376141;28;660238;-65
2022/10/17 06:23:11;;;;;;;28.47;15.73;;;10.70;99.90;;;;;;4355045;28;659540;-65
2022/10/17 06:25:59;;;;;;;26.60;15.33;;;10.90;99.90;;;;;;4359905;28;661228;-65
2022/10/17 06:28:46;;;;;;;29.13;16.60;;;11.00;99.90;;;;;;4341324;28;659840;-65
2022/10/17 06:31:33;;;;;;;29.87;15.23;;;11.10;99.90;;;;;;4360108;28;660588;-65
2022/10/17 06:34:22;;;;;;;28.87;15.87;;;11.30;99.90;;;;;;4341177;28;660197;-65
2022/10/17 06:37:09;;;;;;;31.37;16.40;;;11.50;99.90;;;;;;4359710;28;659348;-65
2022/10/17 06:39:56;;;;;;;27.97;15.40;;;11.60;99.90;;;;;;4341399;28;659991;-66
2022/10/17 06:42:43;;;;;;;23.83;14.87;;;11.70;99.90;;;;;;4359933;28;660164;-65
2022/10/17 06:45:30;;;;;;;26.67;15.90;;;11.80;99.90;;;;;;4341234;28;659399;-66
2022/10/17 06:48:18;;;;;;;35.43;16.70;;;12.10;99.90;;;;;;4360095;28;660491;-65
2022/10/17 06:51:08;;;;;;;29.47;16.43;;;12.20;99.90;;;;;;4350413;28;659622;-66
2022/10/17 06:53:56;;;;;;;30.07;17.23;;;12.40;99.90;;;;;;4341451;28;659564;-66
2022/10/17 06:56:43;;;;;;;32.60;16.50;;;12.70;99.90;;;;;;4360156;28;659841;-65
2022/10/17 06:59:31;;;;;;;34.13;16.67;;;12.80;99.90;;;;;;4340928;28;660187;-65
2022/10/17 07:02:19;;;;;;;26.67;16.53;;;13.00;99.90;;;;;;4360018;28;659999;-65
2022/10/17 07:05:07;;;;;;;26.80;15.53;;;13.20;99.90;;;;;;4341305;28;659936;-65
2022/10/17 07:07:55;;;;;;;26.47;15.67;;;13.40;99.90;;;;;;4357880;28;660703;-65
2022/10/17 07:10:42;;;;;;;23.40;14.53;;;13.50;99.90;;;;;;4337265;28;660770;-65
2022/10/17 07:13:29;;;;;;;20.00;12.73;;;13.70;99.90;;;;;;4359712;28;660002;-65
2022/10/17 07:16:17;;;;;;;18.93;11.70;;;13.90;99.90;;;;;;4341098;28;661171;-65
2022/10/17 07:19:04;;;;;;;21.17;11.90;;;14.20;99.90;;;;;;4359802;28;660001;-65
2022/10/17 07:21:51;;;;;;;21.07;12.90;;;14.40;99.90;;;;;;4338920;28;659667;-65
2022/10/17 07:24:40;;;;;;;20.87;11.93;;;14.60;99.90;;;;;;4374915;28;660293;-65
2022/10/17 07:27:27;;;;;;;20.77;12.40;;;14.70;99.90;;;;;;4357334;28;660449;-65
2022/10/17 07:30:14;;;;;;;21.13;12.57;;;15.00;99.90;;;;;;4379783;28;659920;-65
2022/10/17 07:33:01;;;;;;;20.73;11.90;;;15.20;99.90;;;;;;4359094;28;660216;-65
2022/10/17 07:35:51;;;;;;;24.30;12.83;;;15.40;99.90;;;;;;4379529;28;660691;-65
2022/10/17 07:38:38;;;;;;;22.10;12.23;;;15.60;99.90;;;;;;4356964;28;660455;-65
2022/10/17 07:41:27;;;;;;;21.23;12.00;;;15.80;99.90;;;;;;4365621;28;659776;-67
2022/10/17 07:44:14;;;;;;;17.20;11.60;;;16.10;99.90;;;;;;4379859;28;659988;-65
2022/10/17 07:47:01;;;;;;;14.50;10.23;;;16.30;99.90;;;;;;4358156;28;659893;-66
2022/10/17 07:49:49;;;;;;;20.60;11.57;;;16.60;99.90;;;;;;4379734;28;659600;-65
2022/10/17 07:52:36;;;;;;;18.13;10.57;;;16.80;99.90;;;;;;4360071;28;659929;-65
2022/10/17 07:55:23;;;;;;;28.17;11.63;;;17.00;99.90;;;;;;4382735;28;660803;-66
2022/10/17 07:58:12;;;;;;;20.30;10.87;;;17.00;99.90;;;;;;4360549;28;659908;-67
2022/10/17 08:01:01;;;;;;;21.17;11.53;;;17.30;99.90;;;;;;4378887;28;659670;-65
2022/10/17 08:03:48;;;;;;;17.77;10.50;;;17.40;99.90;;;;;;4356639;28;660431;-65
2022/10/17 08:06:35;;;;;;;19.77;11.53;;;17.50;99.90;;;;;;4360856;28;660411;-66
2022/10/17 08:09:22;;;;;;;19.57;11.03;;;17.80;99.90;;;;;;4383363;28;660662;-66
2022/10/17 08:12:10;;;;;;;16.53;9.60;;;18.10;99.90;;;;;;4379345;28;659489;-66
2022/10/17 08:14:59;;;;;;;15.50;9.73;;;18.50;99.90;;;;;;4384352;28;660355;-66
2022/10/17 08:17:46;;;;;;;15.73;10.10;;;18.70;99.90;;;;;;4361731;28;658886;-66
2022/10/17 08:20:33;;;;;;;17.37;9.80;;;18.80;99.90;;;;;;4381118;28;660544;-66
2022/10/17 08:23:20;;;;;;;17.80;9.80;;;19.00;99.90;;;;;;4361305;28;658450;-67
2022/10/17 08:26:09;;;;;;;19.67;9.67;;;19.30;99.90;;;;;;4384684;28;658710;-66
2022/10/17 08:28:56;;;;;;;13.60;9.17;;;19.50;99.90;;;;;;4361439;28;658353;-66
2022/10/17 08:31:45;;;;;;;13.97;9.27;;;19.60;99.90;;;;;;4379968;28;659858;-66
2022/10/17 08:34:32;;;;;;;14.87;9.57;;;19.50;99.90;;;;;;4357680;28;660653;-66
2022/10/17 08:37:19;;;;;;;14.57;9.23;;;19.60;99.90;;;;;;4378855;28;658671;-65
2022/10/17 08:40:09;;;;;;;17.50;9.40;;;19.80;99.90;;;;;;4361181;28;658657;-66
2022/10/17 08:43:25;;;;;;;17.33;9.43;;;20.30;99.90;;;;;;4361194;28;658467;-66
2022/10/17 08:46:12;;;;;;;17.30;9.23;;;20.70;99.90;;;;;;4334637;28;659283;-66
2022/10/17 08:49:02;;;;;;;15.23;8.97;;;21.10;98.90;;;;;;4379157;28;658856;-67
2022/10/17 08:51:51;;;;;;;14.43;8.70;;;21.20;98.10;;;;;;4379952;28;658604;-66
2022/10/17 08:54:41;;;;;;;13.30;8.47;;;21.40;95.30;;;;;;4357328;28;660232;-66
2022/10/17 08:57:29;;;;;;;12.43;8.37;;;21.50;92.80;;;;;;4356993;28;659523;-69
2022/10/17 09:00:18;;;;;;;14.43;8.50;;;22.00;91.40;;;;;;4360652;28;659225;-69
2022/10/17 09:03:13;;;;;;;17.60;8.40;;;22.10;91.20;;;;;;4360741;28;658593;-69
2022/10/17 09:06:09;;;;;;;14.00;8.40;;;21.90;91.10;;;;;;4338215;28;658825;-69
2022/10/17 09:09:15;;;;;;;16.07;8.77;;;22.00;92.60;;;;;;4338466;28;658870;-70
2022/10/17 09:12:11;;;;;;;13.87;8.40;;;22.40;91.00;;;;;;4334330;28;660099;-69
2022/10/17 09:15:11;;;;;;;16.13;8.83;;;23.20;85.00;;;;;;4356742;28;659645;-69
2022/10/17 09:18:00;;;;;;;15.23;8.37;;;23.50;86.40;;;;;;4356723;28;659212;-69
2022/10/17 09:20:50;;;;;;;12.70;8.13;;;23.80;82.60;;;;;;4355435;28;659821;-69
2022/10/17 09:23:41;;;;;;;14.17;8.10;;;23.60;78.40;;;;;;4353802;28;659931;-69
2022/10/17 09:26:28;;;;;;;12.67;8.60;;;23.40;85.30;;;;;;4339842;28;659669;-70
2022/10/17 09:29:19;;;;;;;12.17;7.90;;;23.40;80.00;;;;;;4343701;28;658540;-68
2022/10/17 09:32:12;;;;;;;11.13;7.87;;;23.60;79.10;;;;;;4343567;28;658916;-69
2022/10/17 09:34:59;;;;;;;13.55;8.07;;;24.10;79.70;;;;;;4339819;28;658802;-69
2022/10/17 09:37:48;;;;;;;18.58;8.23;;;23.10;75.50;;;;;;4343171;28;658782;-69
2022/10/17 09:40:37;;;;;;;13.68;8.82;;;23.60;81.20;;;;;;4343136;28;659122;-69
2022/10/17 09:43:25;;;;;;;12.00;7.75;;;23.90;83.40;;;;;;4359973;28;658725;-69
2022/10/17 09:46:15;;;;;;;11.18;7.57;;;24.50;76.60;;;;;;4343449;28;659458;-69
2022/10/17 09:49:06;;;;;;;14.27;7.28;;;25.00;74.50;;;;;;4342462;28;659055;-69
2022/10/17 09:51:53;;;;;;;10.82;7.38;;;25.00;71.40;;;;;;4339428;28;659614;-69
2022/10/17 09:54:43;;;;;;;18.55;7.18;;;25.10;72.40;;;;;;4343210;28;658493;-69
2022/10/17 09:57:51;;;;;;;12.07;7.65;;;25.00;71.90;;;;;;4343496;28;658334;-69
2022/10/17 10:00:39;;;;;;;17.15;7.80;;;25.50;68.20;;;;;;4343801;28;659491;-69
2022/10/17 10:03:26;;;;;;;11.05;6.45;;;26.30;71.80;;;;;;4339226;28;659172;-69
2022/10/17 10:06:15;;;;;;;16.15;7.43;;;26.50;62.80;;;;;;4361875;28;658877;-69
2022/10/17 10:09:03;;;;;;;10.55;6.90;;;25.40;62.90;;;;;;4343244;28;660389;-69
2022/10/17 10:11:51;;;;;;;10.48;6.65;;;24.70;65.50;;;;;;4342932;28;659393;-69
2022/10/17 10:14:40;;;;;;;10.25;6.75;;;25.10;65.80;;;;;;4361823;28;660097;-69
2022/10/17 10:17:45;;;;;;;12.02;7.45;;;25.80;69.20;;;;;;4342747;28;659837;-69
2022/10/17 10:20:33;;;;;;;12.50;7.00;;;26.00;64.10;;;;;;4316320;28;659188;-69
2022/10/17 10:23:21;;;;;;;10.93;7.03;;;26.50;63.30;;;;;;4347585;28;658959;-69
2022/10/17 10:26:25;;;;;;;10.88;5.90;;;26.30;60.80;;;;;;4378269;28;659688;-69
2022/10/17 10:29:25;;;;;;;9.82;5.63;;;26.30;57.90;;;;;;4333072;28;659521;-69
2022/10/17 10:32:18;;;;;;;10.63;6.03;;;26.00;57.50;;;;;;4334420;28;657802;-69
2022/10/17 10:35:07;;;;;;;8.57;6.05;;;25.60;57.10;;;;;;4336989;28;658316;-69
2022/10/17 10:37:55;;;;;;;8.57;5.65;;;25.70;59.20;;;;;;4366680;28;657220;-69
2022/10/17 10:40:45;;;;;;;10.70;6.10;;;26.60;58.00;;;;;;4344230;28;659264;-69
2022/10/17 10:43:34;;;;;;;8.40;5.85;;;27.40;56.90;;;;;;4338670;28;659556;-69
2022/10/17 10:46:22;;;;;;;9.50;5.50;;;27.60;53.40;;;;;;4343838;28;657715;-69
2022/10/17 10:49:29;;;;;;;8.63;5.43;;;26.70;54.80;;;;;;4361960;28;657458;-69
2022/10/17 10:52:28;;;;;;;11.00;6.05;;;27.20;57.90;;;;;;4339468;28;657305;-69
2022/10/17 10:55:20;;;;;;;9.57;6.32;;;27.30;54.40;;;;;;4325535;28;658412;-69
2022/10/17 10:58:14;;;;;;;11.20;5.88;;;27.20;54.60;;;;;;4339857;28;661316;-68
2022/10/17 11:01:03;;;;;;;13.27;5.78;;;27.40;52.80;;;;;;4321585;28;660055;-69
2022/10/17 11:03:57;;;;;;;11.20;6.18;;;27.40;54.40;;;;;;4347981;28;658268;-69
2022/10/17 11:06:46;;;;;;;10.98;6.25;;;27.70;53.00;;;;;;4344236;28;658618;-69
2022/10/17 11:09:40;;;;;;;13.10;5.80;;;27.70;52.10;;;;;;4344290;28;660069;-69
2022/10/17 11:12:29;;;;;;;12.37;5.97;;;28.10;54.10;;;;;;4320146;28;660028;-69
2022/10/17 11:15:20;;;;;;;10.88;6.07;;;28.10;51.30;;;;;;4347984;28;658397;-69
2022/10/17 11:18:08;;;;;;;10.63;5.80;;;27.30;51.40;;;;;;4343916;28;660547;-69
2022/10/17 11:20:58;;;;;;;11.38;5.90;;;27.50;53.00;;;;;;4347841;28;658550;-69
2022/10/17 11:23:51;;;;;;;15.45;6.70;;;27.60;53.30;;;;;;4348113;28;658342;-69
2022/10/17 11:26:41;;;;;;;9.27;6.07;;;27.70;52.50;;;;;;4344050;28;659018;-69
2022/10/17 11:29:30;;;;;;;12.35;6.45;;;28.10;54.60;;;;;;4345122;28;659336;-69
2022/10/17 11:32:19;;;;;;;9.88;6.20;;;28.00;52.40;;;;;;4344184;28;660789;-69
2022/10/17 11:35:10;;;;;;;10.05;6.25;;;28.10;54.30;;;;;;4348960;28;657161;-69
2022/10/17 11:38:05;;;;;;;12.80;6.18;;;28.30;51.30;;;;;;4345052;28;660663;-69
2022/10/17 11:40:57;;;;;;;13.27;5.90;;;27.60;51.20;;;;;;4344849;28;659545;-69
2022/10/17 11:43:48;;;;;;;13.40;6.13;;;27.80;53.60;;;;;;4344670;28;658956;-69
2022/10/17 11:46:35;;;;;;;9.45;6.20;;;27.60;55.00;;;;;;4327753;28;659022;-69
2022/10/17 11:49:24;;;;;;;10.55;6.55;;;28.50;52.50;;;;;;4368839;28;659396;-69
2022/10/17 11:52:19;;;;;;;11.82;6.50;;;28.90;49.70;;;;;;4349059;28;658581;-69
2022/10/17 11:55:11;;;;;;;9.48;6.90;;;27.90;49.90;;;;;;4325599;28;659339;-69
2022/10/17 11:58:17;;;;;;;11.65;6.13;;;27.70;51.40;;;;;;4345894;28;659153;-69
2022/10/17 12:01:11;;;;;;;9.98;6.32;;;27.70;51.70;;;;;;4344829;28;658233;-69
2022/10/17 12:04:13;;;;;;;13.35;6.32;;;27.70;50.40;;;;;;4344997;28;658299;-69
2022/10/17 12:07:10;;;;;;;9.18;6.03;;;27.90;51.30;;;;;;4326401;28;658659;-69
2022/10/17 12:09:59;;;;;;;11.57;6.13;;;28.00;52.30;;;;;;4323333;28;658821;-69
2022/10/17 12:12:48;;;;;;;9.85;6.53;;;27.90;51.00;;;;;;4345603;28;658684;-69
2022/10/17 12:15:37;;;;;;;9.45;6.40;;;28.90;51.30;;;;;;4351500;28;657586;-69
2022/10/17 12:18:26;;;;;;;9.00;6.13;;;29.80;49.20;;;;;;4365262;28;657493;-69
2022/10/17 12:21:13;;;;;;;12.27;6.30;;;30.10;49.00;;;;;;4343184;28;657815;-69
2022/10/17 12:24:00;;;;;;;11.77;6.72;;;29.90;46.30;;;;;;4339182;28;658845;-69
2022/10/17 12:26:47;;;;;;;11.23;6.78;;;28.80;50.40;;;;;;4346854;28;659748;-69
2022/10/17 12:29:34;;;;;;;11.68;6.60;;;29.00;49.30;;;;;;4347520;28;658382;-69
2022/10/17 12:32:23;;;;;;;8.77;6.07;;;29.20;49.70;;;;;;4329073;28;659347;-69
2022/10/17 12:35:18;;;;;;;8.80;5.65;;;29.50;49.60;;;;;;4329927;28;657807;-69
2022/10/17 12:38:27;;;;;;;9.33;6.23;;;29.20;49.10;;;;;;4307658;28;658336;-69
2022/10/17 12:41:14;;;;;;;10.10;6.68;;;29.20;47.10;;;;;;4325270;28;657274;-69
2022/10/17 12:44:01;;;;;;;9.87;6.50;;;28.70;48.00;;;;;;4327121;28;658815;-69
2022/10/17 12:46:49;;;;;;;9.52;6.40;;;29.70;48.00;;;;;;4347819;28;657659;-69
2022/10/17 12:49:40;;;;;;;7.60;6.25;;;30.10;48.60;;;;;;4329206;28;657678;-69
2022/10/17 12:52:43;;;;;;;16.05;6.88;;;30.40;47.50;;;;;;4325198;28;659469;-69
2022/10/17 12:55:30;;;;;;;10.73;6.72;;;30.60;46.80;;;;;;4313466;28;658730;-69
2022/10/17 12:58:17;;;;;;;8.10;6.20;;;31.20;44.80;;;;;;4346581;28;660029;-70
2022/10/17 13:01:04;;;;;;;9.95;6.70;;;31.70;43.70;;;;;;4347547;28;657410;-70
2022/10/17 13:03:52;;;;;;;8.23;5.85;;;32.10;43.10;;;;;;4329186;28;658791;-69
2022/10/17 13:06:49;;;;;;;10.55;6.75;;;31.40;43.60;;;;;;4350846;28;658806;-70
2022/10/17 13:09:38;;;;;;;12.33;6.40;;;32.40;44.90;;;;;;4305828;28;659430;-69
2022/10/17 13:12:25;;;;;;;9.70;6.47;;;33.40;41.60;;;;;;4327983;28;658824;-70
2022/10/17 13:15:13;;;;;;;9.45;6.00;;;32.40;44.10;;;;;;4351132;28;659349;-69
2022/10/17 13:18:01;;;;;;;8.70;6.57;;;32.00;40.60;;;;;;4339840;28;657831;-70
2022/10/17 13:20:56;;;;;;;13.02;6.47;;;33.00;42.20;;;;;;4347227;28;658492;-69
2022/10/17 13:23:46;;;;;;;10.73;6.10;;;32.40;41.10;;;;;;4329972;28;659503;-70
2022/10/17 13:26:33;;;;;;;9.87;5.83;;;33.70;40.10;;;;;;4338818;28;660535;-69
2022/10/17 13:29:22;;;;;;;10.85;5.80;;;33.80;40.10;;;;;;4344081;28;657629;-69
2022/10/17 13:32:09;;;;;;;13.07;6.38;;;33.00;40.20;;;;;;4361146;28;658890;-69
2022/10/17 13:35:05;;;;;;;11.10;7.30;;;33.00;40.50;;;;;;4342623;28;658710;-69
2022/10/17 13:37:54;;;;;;;13.88;6.72;;;32.60;41.10;;;;;;4339514;28;659168;-69
2022/10/17 13:40:43;;;;;;;10.93;6.63;;;32.10;42.50;;;;;;4340750;28;658740;-69
2022/10/17 13:43:31;;;;;;;9.60;6.82;;;32.40;44.10;;;;;;4343420;28;658956;-69
2022/10/17 13:46:23;;;;;;;13.93;6.35;;;33.30;40.00;;;;;;4367241;28;658739;-69
2022/10/17 13:49:13;;;;;;;12.07;6.77;;;33.30;40.00;;;;;;4320710;28;658859;-69
2022/10/17 13:52:01;;;;;;;10.95;6.80;;;33.20;41.40;;;;;;4354790;28;659020;-69
2022/10/17 13:54:49;;;;;;;13.07;7.07;;;30.90;42.10;;;;;;4365669;28;659143;-70
2022/10/17 13:57:38;;;;;;;13.63;7.13;;;31.50;45.80;;;;;;4343169;28;658724;-70
2022/10/17 14:00:25;;;;;;;15.63;6.55;;;32.50;42.50;;;;;;4343127;28;658296;-69
2022/10/17 14:03:12;;;;;;;11.00;6.50;;;33.50;43.90;;;;;;4365732;28;659846;-70
2022/10/17 14:06:14;;;;;;;11.10;7.03;;;32.90;41.40;;;;;;4361793;28;659115;-70
2022/10/17 14:09:02;;;;;;;10.73;7.00;;;31.60;43.60;;;;;;4342924;28;658761;-70
2022/10/17 14:11:57;;;;;;;11.98;7.03;;;30.20;45.00;;;;;;4361715;28;659050;-70
2022/10/17 14:14:49;;;;;;;11.82;6.95;;;30.30;47.70;;;;;;4334978;28;659129;-70
2022/10/17 14:17:37;;;;;;;11.85;6.55;;;30.60;46.60;;;;;;4342689;28;658726;-70